sensor_id;sensor_type;location;lat;lon;timestamp;P1;durP1;ratioP1;P2;durP2;ratioP2
20393;SDS011;10356;50.544;9.642;2023-08-31T00:00:43;5.63;;;4.68;;
20393;SDS011;10356;50.544;9.642;2023-08-31T00:03:10;5.40;;;4.90;;
20393;SDS011;10356;50.544;9.642;2023-08-31T00:05:40;6.05;;;5.15;;
20393;SDS011;10356;50.544;9.642;2023-08-31T00:08:07;9.30;;;5.95;;
20393;SDS011;10356;50.544;9.642;2023-08-31T00:10:35;6.93;;;5.90;;
20393;SDS011;10356;50.544;9.642;2023-08-31T00:13:02;9.85;;;6.13;;
20393;SDS011;10356;50.544;9.642;2023-08-31T00:15:29;6.13;;;5.53;;
20393;SDS011;10356;50.544;9.642;2023-08-31T00:17:57;5.90;;;5.40;;
20393;SDS011;10356;50.544;9.642;2023-08-31T00:20:24;9.27;;;6.13;;
20393;SDS011;10356;50.544;9.642;2023-08-31T00:22:51;8.77;;;6.35;;
20393;SDS011;10356;50.544;9.642;2023-08-31T00:25:18;8.13;;;6.13;;
20393;SDS011;10356;50.544;9.642;2023-08-31T00:27:46;7.90;;;6.00;;
20393;SDS011;10356;50.544;9.642;2023-08-31T00:30:13;6.65;;;5.88;;
20393;SDS011;10356;50.544;9.642;2023-08-31T00:32:40;8.10;;;5.80;;
20393;SDS011;10356;50.544;9.642;2023-08-31T00:35:08;8.23;;;6.60;;
20393;SDS011;10356;50.544;9.642;2023-08-31T00:37:34;9.02;;;6.85;;
20393;SDS011;10356;50.544;9.642;2023-08-31T00:40:01;6.65;;;6.05;;
20393;SDS011;10356;50.544;9.642;2023-08-31T00:42:29;8.02;;;6.35;;
20393;SDS011;10356;50.544;9.642;2023-08-31T00:44:57;10.15;;;7.00;;
20393;SDS011;10356;50.544;9.642;2023-08-31T00:47:24;7.68;;;6.80;;
20393;SDS011;10356;50.544;9.642;2023-08-31T00:49:51;7.70;;;6.85;;
20393;SDS011;10356;50.544;9.642;2023-08-31T00:52:17;8.73;;;7.13;;
20393;SDS011;10356;50.544;9.642;2023-08-31T00:54:45;9.02;;;7.78;;
20393;SDS011;10356;50.544;9.642;2023-08-31T00:57:12;9.02;;;7.28;;
20393;SDS011;10356;50.544;9.642;2023-08-31T00:59:38;10.32;;;7.07;;
20393;SDS011;10356;50.544;9.642;2023-08-31T01:02:07;11.68;;;7.47;;
20393;SDS011;10356;50.544;9.642;2023-08-31T01:04:40;8.77;;;7.38;;
20393;SDS011;10356;50.544;9.642;2023-08-31T01:07:21;11.98;;;7.30;;
20393;SDS011;10356;50.544;9.642;2023-08-31T01:10:00;8.60;;;7.68;;
20393;SDS011;10356;50.544;9.642;2023-08-31T01:12:37;8.68;;;6.85;;
20393;SDS011;10356;50.544;9.642;2023-08-31T01:15:10;10.23;;;8.60;;
20393;SDS011;10356;50.544;9.642;2023-08-31T01:17:39;10.80;;;8.27;;
20393;SDS011;10356;50.544;9.642;2023-08-31T01:20:10;12.23;;;8.90;;
20393;SDS011;10356;50.544;9.642;2023-08-31T01:22:39;11.00;;;8.10;;
20393;SDS011;10356;50.544;9.642;2023-08-31T01:25:11;13.35;;;9.63;;
20393;SDS011;10356;50.544;9.642;2023-08-31T01:27:38;11.00;;;9.07;;
20393;SDS011;10356;50.544;9.642;2023-08-31T01:30:05;12.95;;;9.07;;
20393;SDS011;10356;50.544;9.642;2023-08-31T01:32:33;11.95;;;8.15;;
20393;SDS011;10356;50.544;9.642;2023-08-31T01:35:00;11.98;;;9.48;;
20393;SDS011;10356;50.544;9.642;2023-08-31T01:37:29;11.85;;;9.57;;
20393;SDS011;10356;50.544;9.642;2023-08-31T01:40:02;10.65;;;8.80;;
20393;SDS011;10356;50.544;9.642;2023-08-31T01:42:34;13.65;;;9.68;;
20393;SDS011;10356;50.544;9.642;2023-08-31T01:45:01;13.02;;;8.82;;
20393;SDS011;10356;50.544;9.642;2023-08-31T01:47:29;11.07;;;9.18;;
20393;SDS011;10356;50.544;9.642;2023-08-31T01:49:56;14.13;;;9.55;;
20393;SDS011;10356;50.544;9.642;2023-08-31T01:52:23;12.68;;;9.60;;
20393;SDS011;10356;50.544;9.642;2023-08-31T01:54:49;14.55;;;9.75;;
20393;SDS011;10356;50.544;9.642;2023-08-31T01:57:16;22.98;;;11.18;;
20393;SDS011;10356;50.544;9.642;2023-08-31T01:59:44;11.55;;;9.65;;
20393;SDS011;10356;50.544;9.642;2023-08-31T02:02:10;12.23;;;9.10;;
20393;SDS011;10356;50.544;9.642;2023-08-31T02:04:36;11.65;;;9.38;;
20393;SDS011;10356;50.544;9.642;2023-08-31T02:07:03;12.63;;;8.73;;
20393;SDS011;10356;50.544;9.642;2023-08-31T02:09:29;13.35;;;9.68;;
20393;SDS011;10356;50.544;9.642;2023-08-31T02:11:56;12.43;;;8.95;;
20393;SDS011;10356;50.544;9.642;2023-08-31T02:14:22;20.00;;;9.40;;
20393;SDS011;10356;50.544;9.642;2023-08-31T02:16:50;9.77;;;8.15;;
20393;SDS011;10356;50.544;9.642;2023-08-31T02:19:17;11.73;;;9.77;;
20393;SDS011;10356;50.544;9.642;2023-08-31T02:21:43;16.33;;;10.52;;
20393;SDS011;10356;50.544;9.642;2023-08-31T02:24:10;12.32;;;10.20;;
20393;SDS011;10356;50.544;9.642;2023-08-31T02:26:36;12.13;;;10.75;;
20393;SDS011;10356;50.544;9.642;2023-08-31T02:29:03;12.68;;;9.88;;
20393;SDS011;10356;50.544;9.642;2023-08-31T02:31:29;12.20;;;10.30;;
20393;SDS011;10356;50.544;9.642;2023-08-31T02:33:57;11.45;;;10.10;;
20393;SDS011;10356;50.544;9.642;2023-08-31T02:36:24;15.52;;;12.18;;
20393;SDS011;10356;50.544;9.642;2023-08-31T02:38:50;15.75;;;12.00;;
20393;SDS011;10356;50.544;9.642;2023-08-31T02:41:18;16.65;;;12.10;;
20393;SDS011;10356;50.544;9.642;2023-08-31T02:43:44;14.82;;;12.20;;
20393;SDS011;10356;50.544;9.642;2023-08-31T02:46:11;17.45;;;14.52;;
20393;SDS011;10356;50.544;9.642;2023-08-31T02:48:37;22.88;;;14.95;;
20393;SDS011;10356;50.544;9.642;2023-08-31T02:51:05;16.73;;;14.35;;
20393;SDS011;10356;50.544;9.642;2023-08-31T02:53:32;18.52;;;14.82;;
20393;SDS011;10356;50.544;9.642;2023-08-31T02:55:58;21.80;;;15.15;;
20393;SDS011;10356;50.544;9.642;2023-08-31T02:58:23;19.52;;;14.93;;
20393;SDS011;10356;50.544;9.642;2023-08-31T03:00:50;18.52;;;14.90;;
20393;SDS011;10356;50.544;9.642;2023-08-31T03:03:18;17.55;;;14.32;;
20393;SDS011;10356;50.544;9.642;2023-08-31T03:05:44;16.77;;;13.77;;
20393;SDS011;10356;50.544;9.642;2023-08-31T03:08:13;17.10;;;14.88;;
20393;SDS011;10356;50.544;9.642;2023-08-31T03:10:40;19.60;;;14.55;;
20393;SDS011;10356;50.544;9.642;2023-08-31T03:13:06;18.33;;;14.48;;
20393;SDS011;10356;50.544;9.642;2023-08-31T03:15:33;19.15;;;14.23;;
20393;SDS011;10356;50.544;9.642;2023-08-31T03:18:00;19.20;;;15.55;;
20393;SDS011;10356;50.544;9.642;2023-08-31T03:20:26;16.13;;;14.18;;
20393;SDS011;10356;50.544;9.642;2023-08-31T03:22:53;18.42;;;14.27;;
20393;SDS011;10356;50.544;9.642;2023-08-31T03:25:21;18.80;;;13.60;;
20393;SDS011;10356;50.544;9.642;2023-08-31T03:27:47;18.33;;;14.35;;
20393;SDS011;10356;50.544;9.642;2023-08-31T03:30:14;19.50;;;14.25;;
20393;SDS011;10356;50.544;9.642;2023-08-31T03:32:40;18.20;;;13.88;;
20393;SDS011;10356;50.544;9.642;2023-08-31T03:35:07;19.73;;;14.55;;
20393;SDS011;10356;50.544;9.642;2023-08-31T03:37:34;21.45;;;14.35;;
20393;SDS011;10356;50.544;9.642;2023-08-31T03:40:01;19.90;;;14.30;;
20393;SDS011;10356;50.544;9.642;2023-08-31T03:42:30;17.88;;;14.13;;
20393;SDS011;10356;50.544;9.642;2023-08-31T03:44:57;17.75;;;14.15;;
20393;SDS011;10356;50.544;9.642;2023-08-31T03:47:23;19.15;;;14.15;;
20393;SDS011;10356;50.544;9.642;2023-08-31T03:49:50;21.48;;;15.52;;
20393;SDS011;10356;50.544;9.642;2023-08-31T03:52:17;19.80;;;13.98;;
20393;SDS011;10356;50.544;9.642;2023-08-31T03:54:43;18.83;;;14.43;;
20393;SDS011;10356;50.544;9.642;2023-08-31T03:57:09;21.13;;;14.80;;
20393;SDS011;10356;50.544;9.642;2023-08-31T03:59:37;20.80;;;15.20;;
20393;SDS011;10356;50.544;9.642;2023-08-31T04:02:04;17.58;;;13.75;;
20393;SDS011;10356;50.544;9.642;2023-08-31T04:04:31;26.42;;;15.98;;
20393;SDS011;10356;50.544;9.642;2023-08-31T04:06:59;24.60;;;15.55;;
20393;SDS011;10356;50.544;9.642;2023-08-31T04:09:25;33.25;;;16.58;;
20393;SDS011;10356;50.544;9.642;2023-08-31T04:11:52;21.90;;;15.07;;
20393;SDS011;10356;50.544;9.642;2023-08-31T04:14:18;24.67;;;16.27;;
20393;SDS011;10356;50.544;9.642;2023-08-31T04:16:46;23.60;;;16.52;;
20393;SDS011;10356;50.544;9.642;2023-08-31T04:19:15;23.65;;;17.33;;
20393;SDS011;10356;50.544;9.642;2023-08-31T04:21:41;19.20;;;15.60;;
20393;SDS011;10356;50.544;9.642;2023-08-31T04:24:08;18.75;;;14.60;;
20393;SDS011;10356;50.544;9.642;2023-08-31T04:26:35;22.95;;;15.18;;
20393;SDS011;10356;50.544;9.642;2023-08-31T04:29:02;22.15;;;14.95;;
20393;SDS011;10356;50.544;9.642;2023-08-31T04:31:30;20.20;;;14.50;;
20393;SDS011;10356;50.544;9.642;2023-08-31T04:33:58;16.42;;;14.20;;
20393;SDS011;10356;50.544;9.642;2023-08-31T04:36:25;18.45;;;14.95;;
20393;SDS011;10356;50.544;9.642;2023-08-31T04:38:51;19.27;;;14.85;;
20393;SDS011;10356;50.544;9.642;2023-08-31T04:41:18;19.65;;;15.52;;
20393;SDS011;10356;50.544;9.642;2023-08-31T04:43:45;21.40;;;16.20;;
20393;SDS011;10356;50.544;9.642;2023-08-31T04:46:12;21.17;;;15.93;;
20393;SDS011;10356;50.544;9.642;2023-08-31T04:48:39;24.00;;;16.40;;
20393;SDS011;10356;50.544;9.642;2023-08-31T04:51:09;21.50;;;17.38;;
20393;SDS011;10356;50.544;9.642;2023-08-31T04:53:53;22.67;;;17.30;;
20393;SDS011;10356;50.544;9.642;2023-08-31T04:56:20;24.67;;;18.13;;
20393;SDS011;10356;50.544;9.642;2023-08-31T04:58:46;26.88;;;18.63;;
20393;SDS011;10356;50.544;9.642;2023-08-31T05:01:12;25.92;;;17.98;;
20393;SDS011;10356;50.544;9.642;2023-08-31T05:03:39;25.52;;;18.13;;
20393;SDS011;10356;50.544;9.642;2023-08-31T05:06:07;23.30;;;17.60;;
20393;SDS011;10356;50.544;9.642;2023-08-31T05:08:33;24.00;;;17.60;;
20393;SDS011;10356;50.544;9.642;2023-08-31T05:11:00;37.50;;;22.20;;
20393;SDS011;10356;50.544;9.642;2023-08-31T05:13:26;28.98;;;19.80;;
20393;SDS011;10356;50.544;9.642;2023-08-31T05:15:53;27.02;;;18.27;;
20393;SDS011;10356;50.544;9.642;2023-08-31T05:18:19;25.13;;;17.20;;
20393;SDS011;10356;50.544;9.642;2023-08-31T05:20:46;20.42;;;15.13;;
20393;SDS011;10356;50.544;9.642;2023-08-31T05:23:15;21.65;;;13.90;;
20393;SDS011;10356;50.544;9.642;2023-08-31T05:25:41;22.73;;;13.82;;
20393;SDS011;10356;50.544;9.642;2023-08-31T05:28:08;17.75;;;13.95;;
20393;SDS011;10356;50.544;9.642;2023-08-31T05:30:34;17.40;;;13.48;;
20393;SDS011;10356;50.544;9.642;2023-08-31T05:33:01;15.55;;;12.52;;
20393;SDS011;10356;50.544;9.642;2023-08-31T05:35:28;15.68;;;12.38;;
20393;SDS011;10356;50.544;9.642;2023-08-31T05:37:55;14.48;;;12.30;;
20393;SDS011;10356;50.544;9.642;2023-08-31T05:40:22;16.38;;;12.35;;
20393;SDS011;10356;50.544;9.642;2023-08-31T05:42:49;19.77;;;12.75;;
20393;SDS011;10356;50.544;9.642;2023-08-31T05:45:15;19.60;;;12.70;;
20393;SDS011;10356;50.544;9.642;2023-08-31T05:47:42;15.55;;;11.88;;
20393;SDS011;10356;50.544;9.642;2023-08-31T05:50:08;18.05;;;12.10;;
20393;SDS011;10356;50.544;9.642;2023-08-31T05:52:35;14.88;;;12.20;;
20393;SDS011;10356;50.544;9.642;2023-08-31T05:55:02;16.40;;;11.45;;
20393;SDS011;10356;50.544;9.642;2023-08-31T05:57:30;18.88;;;11.88;;
20393;SDS011;10356;50.544;9.642;2023-08-31T05:59:56;18.05;;;12.95;;
20393;SDS011;10356;50.544;9.642;2023-08-31T06:02:23;16.30;;;12.30;;
20393;SDS011;10356;50.544;9.642;2023-08-31T06:04:49;17.48;;;12.40;;
20393;SDS011;10356;50.544;9.642;2023-08-31T06:07:16;18.73;;;12.98;;
20393;SDS011;10356;50.544;9.642;2023-08-31T06:09:42;15.77;;;11.73;;
20393;SDS011;10356;50.544;9.642;2023-08-31T06:12:09;13.88;;;11.18;;
20393;SDS011;10356;50.544;9.642;2023-08-31T06:14:37;17.20;;;11.80;;
20393;SDS011;10356;50.544;9.642;2023-08-31T06:19:48;16.92;;;10.75;;
20393;SDS011;10356;50.544;9.642;2023-08-31T06:22:14;16.02;;;10.45;;
20393;SDS011;10356;50.544;9.642;2023-08-31T06:27:41;12.48;;;10.50;;
20393;SDS011;10356;50.544;9.642;2023-08-31T06:30:10;12.95;;;9.73;;
20393;SDS011;10356;50.544;9.642;2023-08-31T06:32:40;12.13;;;9.57;;
20393;SDS011;10356;50.544;9.642;2023-08-31T06:35:08;15.05;;;9.77;;
20393;SDS011;10356;50.544;9.642;2023-08-31T06:37:34;10.00;;;7.88;;
20393;SDS011;10356;50.544;9.642;2023-08-31T06:40:00;8.30;;;7.07;;
20393;SDS011;10356;50.544;9.642;2023-08-31T06:42:27;8.82;;;6.60;;
20393;SDS011;10356;50.544;9.642;2023-08-31T06:44:53;10.60;;;7.10;;
20393;SDS011;10356;50.544;9.642;2023-08-31T06:47:23;9.25;;;6.20;;
20393;SDS011;10356;50.544;9.642;2023-08-31T06:49:50;9.43;;;5.47;;
20393;SDS011;10356;50.544;9.642;2023-08-31T06:52:17;9.18;;;5.82;;
20393;SDS011;10356;50.544;9.642;2023-08-31T06:54:44;6.93;;;4.63;;
20393;SDS011;10356;50.544;9.642;2023-08-31T06:57:11;9.18;;;4.57;;
20393;SDS011;10356;50.544;9.642;2023-08-31T06:59:37;5.25;;;4.40;;
20393;SDS011;10356;50.544;9.642;2023-08-31T07:02:04;6.65;;;4.82;;
20393;SDS011;10356;50.544;9.642;2023-08-31T07:04:32;7.60;;;5.45;;
20393;SDS011;10356;50.544;9.642;2023-08-31T07:06:58;7.00;;;4.80;;
20393;SDS011;10356;50.544;9.642;2023-08-31T07:09:25;6.18;;;3.90;;
20393;SDS011;10356;50.544;9.642;2023-08-31T07:11:52;4.00;;;3.55;;
20393;SDS011;10356;50.544;9.642;2023-08-31T07:14:19;6.63;;;3.88;;
20393;SDS011;10356;50.544;9.642;2023-08-31T07:16:45;5.32;;;4.20;;
20393;SDS011;10356;50.544;9.642;2023-08-31T07:19:11;6.63;;;4.25;;
20393;SDS011;10356;50.544;9.642;2023-08-31T07:21:40;8.82;;;4.53;;
20393;SDS011;10356;50.544;9.642;2023-08-31T07:24:06;6.03;;;4.35;;
20393;SDS011;10356;50.544;9.642;2023-08-31T07:26:33;6.45;;;4.22;;
20393;SDS011;10356;50.544;9.642;2023-08-31T07:29:00;5.85;;;4.43;;
20393;SDS011;10356;50.544;9.642;2023-08-31T07:31:29;5.18;;;4.25;;
20393;SDS011;10356;50.544;9.642;2023-08-31T07:33:56;6.97;;;3.95;;
20393;SDS011;10356;50.544;9.642;2023-08-31T07:36:23;6.78;;;4.40;;
20393;SDS011;10356;50.544;9.642;2023-08-31T07:38:51;5.72;;;4.00;;
20393;SDS011;10356;50.544;9.642;2023-08-31T07:41:18;5.82;;;3.95;;
20393;SDS011;10356;50.544;9.642;2023-08-31T07:43:44;7.40;;;4.60;;
20393;SDS011;10356;50.544;9.642;2023-08-31T07:46:11;7.70;;;4.07;;
20393;SDS011;10356;50.544;9.642;2023-08-31T07:48:37;7.60;;;4.28;;
20393;SDS011;10356;50.544;9.642;2023-08-31T07:51:04;5.45;;;4.03;;
20393;SDS011;10356;50.544;9.642;2023-08-31T07:53:31;9.43;;;4.75;;
20393;SDS011;10356;50.544;9.642;2023-08-31T07:55:58;10.60;;;4.28;;
20393;SDS011;10356;50.544;9.642;2023-08-31T07:58:25;4.95;;;4.03;;
20393;SDS011;10356;50.544;9.642;2023-08-31T08:00:52;6.18;;;3.90;;
20393;SDS011;10356;50.544;9.642;2023-08-31T08:03:19;7.50;;;3.83;;
20393;SDS011;10356;50.544;9.642;2023-08-31T08:05:45;6.38;;;3.90;;
20393;SDS011;10356;50.544;9.642;2023-08-31T08:08:12;4.78;;;3.72;;
20393;SDS011;10356;50.544;9.642;2023-08-31T08:10:38;6.68;;;4.20;;
20393;SDS011;10356;50.544;9.642;2023-08-31T08:13:06;5.03;;;3.47;;
20393;SDS011;10356;50.544;9.642;2023-08-31T08:15:32;6.10;;;4.00;;
20393;SDS011;10356;50.544;9.642;2023-08-31T08:17:59;6.30;;;2.95;;
20393;SDS011;10356;50.544;9.642;2023-08-31T08:20:26;5.65;;;3.38;;
20393;SDS011;10356;50.544;9.642;2023-08-31T08:22:53;3.50;;;2.78;;
20393;SDS011;10356;50.544;9.642;2023-08-31T08:25:20;4.65;;;2.33;;
20393;SDS011;10356;50.544;9.642;2023-08-31T08:27:47;4.72;;;2.60;;
20393;SDS011;10356;50.544;9.642;2023-08-31T08:30:15;4.25;;;2.67;;
20393;SDS011;10356;50.544;9.642;2023-08-31T08:32:43;4.50;;;2.67;;
20393;SDS011;10356;50.544;9.642;2023-08-31T08:35:10;7.75;;;2.63;;
20393;SDS011;10356;50.544;9.642;2023-08-31T08:37:36;6.10;;;2.45;;
20393;SDS011;10356;50.544;9.642;2023-08-31T08:40:03;4.45;;;2.38;;
20393;SDS011;10356;50.544;9.642;2023-08-31T08:42:30;6.80;;;2.33;;
20393;SDS011;10356;50.544;9.642;2023-08-31T08:44:57;4.45;;;2.42;;
20393;SDS011;10356;50.544;9.642;2023-08-31T08:47:25;2.67;;;1.85;;
20393;SDS011;10356;50.544;9.642;2023-08-31T08:49:53;3.38;;;1.73;;
20393;SDS011;10356;50.544;9.642;2023-08-31T08:52:20;3.05;;;2.03;;
20393;SDS011;10356;50.544;9.642;2023-08-31T08:54:47;5.90;;;2.08;;
20393;SDS011;10356;50.544;9.642;2023-08-31T08:57:15;4.55;;;2.40;;
20393;SDS011;10356;50.544;9.642;2023-08-31T08:59:42;3.60;;;2.08;;
20393;SDS011;10356;50.544;9.642;2023-08-31T09:02:08;3.72;;;1.60;;
20393;SDS011;10356;50.544;9.642;2023-08-31T09:04:38;4.82;;;2.10;;
20393;SDS011;10356;50.544;9.642;2023-08-31T09:07:04;5.05;;;1.80;;
20393;SDS011;10356;50.544;9.642;2023-08-31T09:09:31;3.90;;;1.80;;
20393;SDS011;10356;50.544;9.642;2023-08-31T09:12:05;3.90;;;1.60;;
20393;SDS011;10356;50.544;9.642;2023-08-31T09:14:32;4.03;;;1.60;;
20393;SDS011;10356;50.544;9.642;2023-08-31T09:16:59;2.35;;;1.88;;
20393;SDS011;10356;50.544;9.642;2023-08-31T09:19:25;4.15;;;1.85;;
20393;SDS011;10356;50.544;9.642;2023-08-31T09:21:54;6.78;;;2.30;;
20393;SDS011;10356;50.544;9.642;2023-08-31T09:24:22;3.58;;;1.80;;
20393;SDS011;10356;50.544;9.642;2023-08-31T09:26:52;4.35;;;1.70;;
20393;SDS011;10356;50.544;9.642;2023-08-31T09:29:19;2.00;;;1.40;;
20393;SDS011;10356;50.544;9.642;2023-08-31T09:31:46;5.80;;;2.35;;
20393;SDS011;10356;50.544;9.642;2023-08-31T09:34:13;3.97;;;1.60;;
20393;SDS011;10356;50.544;9.642;2023-08-31T09:36:40;3.20;;;1.60;;
20393;SDS011;10356;50.544;9.642;2023-08-31T09:39:08;4.55;;;1.60;;
20393;SDS011;10356;50.544;9.642;2023-08-31T09:41:38;3.45;;;1.83;;
20393;SDS011;10356;50.544;9.642;2023-08-31T09:44:19;4.47;;;1.85;;
20393;SDS011;10356;50.544;9.642;2023-08-31T09:46:46;7.78;;;2.22;;
20393;SDS011;10356;50.544;9.642;2023-08-31T09:49:13;4.18;;;2.10;;
20393;SDS011;10356;50.544;9.642;2023-08-31T09:51:41;4.50;;;2.65;;
20393;SDS011;10356;50.544;9.642;2023-08-31T09:54:13;3.95;;;2.13;;
20393;SDS011;10356;50.544;9.642;2023-08-31T09:56:41;4.30;;;2.05;;
20393;SDS011;10356;50.544;9.642;2023-08-31T09:59:08;6.68;;;2.40;;
20393;SDS011;10356;50.544;9.642;2023-08-31T10:01:35;2.97;;;2.20;;
20393;SDS011;10356;50.544;9.642;2023-08-31T10:04:02;6.25;;;3.33;;
20393;SDS011;10356;50.544;9.642;2023-08-31T10:06:31;11.05;;;3.25;;
20393;SDS011;10356;50.544;9.642;2023-08-31T10:08:58;8.40;;;3.03;;
20393;SDS011;10356;50.544;9.642;2023-08-31T10:11:26;4.97;;;2.90;;
20393;SDS011;10356;50.544;9.642;2023-08-31T10:13:53;4.93;;;3.15;;
20393;SDS011;10356;50.544;9.642;2023-08-31T10:16:21;5.78;;;3.05;;
20393;SDS011;10356;50.544;9.642;2023-08-31T10:18:48;6.53;;;3.00;;
20393;SDS011;10356;50.544;9.642;2023-08-31T10:21:15;6.63;;;2.92;;
20393;SDS011;10356;50.544;9.642;2023-08-31T10:23:44;4.68;;;2.95;;
20393;SDS011;10356;50.544;9.642;2023-08-31T10:26:10;5.60;;;2.92;;
20393;SDS011;10356;50.544;9.642;2023-08-31T10:28:42;4.97;;;2.63;;
20393;SDS011;10356;50.544;9.642;2023-08-31T10:31:09;4.85;;;2.63;;
20393;SDS011;10356;50.544;9.642;2023-08-31T10:33:39;7.15;;;2.67;;
20393;SDS011;10356;50.544;9.642;2023-08-31T10:36:11;4.45;;;2.63;;
20393;SDS011;10356;50.544;9.642;2023-08-31T10:38:39;5.47;;;2.80;;
20393;SDS011;10356;50.544;9.642;2023-08-31T10:44:00;6.93;;;2.78;;
20393;SDS011;10356;50.544;9.642;2023-08-31T10:46:31;4.60;;;2.10;;
20393;SDS011;10356;50.544;9.642;2023-08-31T10:48:58;6.47;;;2.85;;
20393;SDS011;10356;50.544;9.642;2023-08-31T10:51:27;3.72;;;2.70;;
20393;SDS011;10356;50.544;9.642;2023-08-31T10:56:52;6.13;;;2.38;;
20393;SDS011;10356;50.544;9.642;2023-08-31T10:59:46;6.72;;;2.30;;
20393;SDS011;10356;50.544;9.642;2023-08-31T11:02:29;4.18;;;2.30;;
20393;SDS011;10356;50.544;9.642;2023-08-31T11:05:01;4.97;;;2.00;;
20393;SDS011;10356;50.544;9.642;2023-08-31T11:07:29;5.13;;;2.08;;
20393;SDS011;10356;50.544;9.642;2023-08-31T11:10:06;4.22;;;1.60;;
20393;SDS011;10356;50.544;9.642;2023-08-31T11:12:44;2.85;;;1.30;;
20393;SDS011;10356;50.544;9.642;2023-08-31T11:15:13;2.92;;;1.48;;
20393;SDS011;10356;50.544;9.642;2023-08-31T11:17:40;4.88;;;1.70;;
20393;SDS011;10356;50.544;9.642;2023-08-31T11:20:08;3.50;;;1.90;;
20393;SDS011;10356;50.544;9.642;2023-08-31T11:22:38;3.63;;;1.52;;
20393;SDS011;10356;50.544;9.642;2023-08-31T11:25:05;5.10;;;1.60;;
20393;SDS011;10356;50.544;9.642;2023-08-31T11:27:32;3.88;;;1.60;;
20393;SDS011;10356;50.544;9.642;2023-08-31T11:29:59;3.65;;;1.80;;
20393;SDS011;10356;50.544;9.642;2023-08-31T11:32:27;3.40;;;1.33;;
20393;SDS011;10356;50.544;9.642;2023-08-31T11:34:53;3.80;;;1.90;;
20393;SDS011;10356;50.544;9.642;2023-08-31T11:37:19;3.95;;;1.98;;
20393;SDS011;10356;50.544;9.642;2023-08-31T11:39:48;3.58;;;1.70;;
20393;SDS011;10356;50.544;9.642;2023-08-31T11:42:15;5.95;;;1.88;;
20393;SDS011;10356;50.544;9.642;2023-08-31T11:44:43;5.00;;;2.42;;
20393;SDS011;10356;50.544;9.642;2023-08-31T11:47:10;5.90;;;2.38;;
20393;SDS011;10356;50.544;9.642;2023-08-31T11:49:39;3.90;;;1.67;;
20393;SDS011;10356;50.544;9.642;2023-08-31T11:52:06;8.77;;;2.00;;
20393;SDS011;10356;50.544;9.642;2023-08-31T11:54:36;5.03;;;1.77;;
20393;SDS011;10356;50.544;9.642;2023-08-31T11:57:03;4.95;;;1.50;;
20393;SDS011;10356;50.544;9.642;2023-08-31T11:59:33;1.95;;;1.52;;
20393;SDS011;10356;50.544;9.642;2023-08-31T12:02:00;3.63;;;1.60;;
20393;SDS011;10356;50.544;9.642;2023-08-31T12:04:28;5.28;;;2.10;;
20393;SDS011;10356;50.544;9.642;2023-08-31T12:07:01;3.50;;;1.52;;
20393;SDS011;10356;50.544;9.642;2023-08-31T12:09:29;3.90;;;1.67;;
20393;SDS011;10356;50.544;9.642;2023-08-31T12:11:56;3.20;;;1.50;;
20393;SDS011;10356;50.544;9.642;2023-08-31T12:14:23;1.92;;;1.45;;
20393;SDS011;10356;50.544;9.642;2023-08-31T12:16:51;4.45;;;1.40;;
20393;SDS011;10356;50.544;9.642;2023-08-31T12:19:18;3.35;;;1.60;;
20393;SDS011;10356;50.544;9.642;2023-08-31T12:21:45;4.43;;;1.40;;
20393;SDS011;10356;50.544;9.642;2023-08-31T12:24:14;5.20;;;1.55;;
20393;SDS011;10356;50.544;9.642;2023-08-31T12:26:41;3.50;;;1.40;;
20393;SDS011;10356;50.544;9.642;2023-08-31T12:29:08;4.15;;;1.50;;
20393;SDS011;10356;50.544;9.642;2023-08-31T12:31:35;4.50;;;1.45;;
20393;SDS011;10356;50.544;9.642;2023-08-31T12:34:02;4.43;;;1.70;;
20393;SDS011;10356;50.544;9.642;2023-08-31T12:36:32;6.05;;;2.17;;
20393;SDS011;10356;50.544;9.642;2023-08-31T12:38:58;3.25;;;1.98;;
20393;SDS011;10356;50.544;9.642;2023-08-31T12:41:28;4.93;;;1.75;;
20393;SDS011;10356;50.544;9.642;2023-08-31T12:43:54;3.50;;;1.35;;
20393;SDS011;10356;50.544;9.642;2023-08-31T12:46:21;2.78;;;1.42;;
20393;SDS011;10356;50.544;9.642;2023-08-31T12:48:47;2.47;;;1.45;;
20393;SDS011;10356;50.544;9.642;2023-08-31T12:51:14;3.03;;;1.45;;
20393;SDS011;10356;50.544;9.642;2023-08-31T12:53:41;5.30;;;1.35;;
20393;SDS011;10356;50.544;9.642;2023-08-31T12:56:07;3.38;;;1.65;;
20393;SDS011;10356;50.544;9.642;2023-08-31T12:58:35;2.63;;;1.20;;
20393;SDS011;10356;50.544;9.642;2023-08-31T13:01:02;3.92;;;1.85;;
20393;SDS011;10356;50.544;9.642;2023-08-31T13:03:29;4.28;;;1.42;;
20393;SDS011;10356;50.544;9.642;2023-08-31T13:05:55;2.00;;;1.23;;
20393;SDS011;10356;50.544;9.642;2023-08-31T13:08:22;3.08;;;1.70;;
20393;SDS011;10356;50.544;9.642;2023-08-31T13:10:52;4.75;;;1.50;;
20393;SDS011;10356;50.544;9.642;2023-08-31T13:13:19;4.22;;;1.98;;
20393;SDS011;10356;50.544;9.642;2023-08-31T13:15:47;4.00;;;1.52;;
20393;SDS011;10356;50.544;9.642;2023-08-31T13:18:14;3.72;;;2.00;;
20393;SDS011;10356;50.544;9.642;2023-08-31T13:20:40;4.38;;;1.60;;
20393;SDS011;10356;50.544;9.642;2023-08-31T13:23:07;5.22;;;1.60;;
20393;SDS011;10356;50.544;9.642;2023-08-31T13:25:34;3.60;;;1.55;;
20393;SDS011;10356;50.544;9.642;2023-08-31T13:28:00;3.17;;;1.50;;
20393;SDS011;10356;50.544;9.642;2023-08-31T13:30:29;3.20;;;1.67;;
20393;SDS011;10356;50.544;9.642;2023-08-31T13:32:57;3.47;;;1.58;;
20393;SDS011;10356;50.544;9.642;2023-08-31T13:35:23;5.00;;;1.48;;
20393;SDS011;10356;50.544;9.642;2023-08-31T13:37:49;3.97;;;1.60;;
20393;SDS011;10356;50.544;9.642;2023-08-31T13:40:16;5.00;;;1.65;;
20393;SDS011;10356;50.544;9.642;2023-08-31T13:42:48;3.50;;;1.67;;
20393;SDS011;10356;50.544;9.642;2023-08-31T13:45:21;5.35;;;1.95;;
20393;SDS011;10356;50.544;9.642;2023-08-31T13:47:48;4.38;;;1.83;;
20393;SDS011;10356;50.544;9.642;2023-08-31T13:50:16;6.55;;;1.90;;
20393;SDS011;10356;50.544;9.642;2023-08-31T13:52:42;7.55;;;1.83;;
20393;SDS011;10356;50.544;9.642;2023-08-31T13:55:09;5.68;;;1.90;;
20393;SDS011;10356;50.544;9.642;2023-08-31T13:57:36;5.28;;;1.80;;
20393;SDS011;10356;50.544;9.642;2023-08-31T14:00:04;3.20;;;1.23;;
20393;SDS011;10356;50.544;9.642;2023-08-31T14:02:34;3.15;;;1.30;;
20393;SDS011;10356;50.544;9.642;2023-08-31T14:05:00;2.90;;;1.45;;
20393;SDS011;10356;50.544;9.642;2023-08-31T14:07:28;3.20;;;1.40;;
20393;SDS011;10356;50.544;9.642;2023-08-31T14:09:55;3.58;;;1.50;;
20393;SDS011;10356;50.544;9.642;2023-08-31T14:12:23;3.75;;;1.38;;
20393;SDS011;10356;50.544;9.642;2023-08-31T14:14:49;2.42;;;1.40;;
20393;SDS011;10356;50.544;9.642;2023-08-31T14:17:16;3.80;;;1.10;;
20393;SDS011;10356;50.544;9.642;2023-08-31T14:19:42;2.55;;;1.15;;
20393;SDS011;10356;50.544;9.642;2023-08-31T14:22:09;3.38;;;1.30;;
20393;SDS011;10356;50.544;9.642;2023-08-31T14:24:37;2.50;;;1.60;;
20393;SDS011;10356;50.544;9.642;2023-08-31T14:27:04;4.72;;;1.55;;
20393;SDS011;10356;50.544;9.642;2023-08-31T14:29:31;6.15;;;1.73;;
20393;SDS011;10356;50.544;9.642;2023-08-31T14:32:00;4.05;;;1.42;;
20393;SDS011;10356;50.544;9.642;2023-08-31T14:34:27;2.50;;;1.35;;
20393;SDS011;10356;50.544;9.642;2023-08-31T14:36:53;2.40;;;1.20;;
20393;SDS011;10356;50.544;9.642;2023-08-31T14:39:22;3.50;;;1.45;;
20393;SDS011;10356;50.544;9.642;2023-08-31T14:41:55;2.50;;;1.20;;
20393;SDS011;10356;50.544;9.642;2023-08-31T14:44:22;2.53;;;1.30;;
20393;SDS011;10356;50.544;9.642;2023-08-31T14:46:49;3.05;;;1.40;;
20393;SDS011;10356;50.544;9.642;2023-08-31T14:49:15;2.22;;;1.20;;
20393;SDS011;10356;50.544;9.642;2023-08-31T14:51:42;2.00;;;1.40;;